createdAt,value
2023-01-25T00:00:00.878Z,77.98
2023-01-25T00:02:33.278Z,77.99
2023-01-25T00:05:02.942Z,77.42
2023-01-25T00:07:35.209Z,78.13
2023-01-25T00:10:05.141Z,78.21
2023-01-25T00:12:36.576Z,77.89
2023-01-25T00:15:07.168Z,78.29
2023-01-25T00:17:39.647Z,77.97
2023-01-25T00:20:10.047Z,77.65
2023-01-25T00:22:39.684Z,77.83
2023-01-25T00:25:10.053Z,77.48
2023-01-25T00:27:40.146Z,77.45
2023-01-25T00:30:43.216Z,77.78
2023-01-25T00:33:27.859Z,77.62
2023-01-25T00:36:03.831Z,77.90
2023-01-25T00:38:36.688Z,77.76
2023-01-25T00:41:06.607Z,77.60
2023-01-25T00:43:37.989Z,77.70
2023-01-25T00:46:11.987Z,77.60
2023-01-25T00:48:42.030Z,77.91
2023-01-25T00:51:14.368Z,77.73
2023-01-25T00:53:45.617Z,78.03
2023-01-25T00:56:16.386Z,77.51
2023-01-25T00:58:54.033Z,77.41
2023-01-25T01:01:23.908Z,77.18
2023-01-25T01:03:54.822Z,77.37
2023-01-25T01:06:27.066Z,77.39
2023-01-25T01:08:57.089Z,77.62
2023-01-25T01:11:26.882Z,77.87
2023-01-25T01:13:56.585Z,78.12
2023-01-25T01:19:54.087Z,78.25
2023-01-25T01:22:29.119Z,78.19
2023-01-25T01:24:58.740Z,78.07
2023-01-25T01:27:30.765Z,78.25
2023-01-25T01:30:00.514Z,78.16
2023-01-25T01:32:32.114Z,78.07
2023-01-25T01:35:01.837Z,77.81
2023-01-25T01:37:34.057Z,77.81
2023-01-25T01:40:05.018Z,78.06
2023-01-25T01:42:34.585Z,77.92
2023-01-25T01:45:04.283Z,77.87
2023-01-25T01:47:39.130Z,78.02
2023-01-25T01:50:21.363Z,78.10
2023-01-25T01:52:59.080Z,78.49
2023-01-25T01:55:29.255Z,78.69
2023-01-25T01:58:00.179Z,78.50
2023-01-25T02:00:33.479Z,78.29
2023-01-25T02:03:04.201Z,78.33
2023-01-25T02:05:40.744Z,78.53
2023-01-25T02:08:17.688Z,78.55
2023-01-25T02:10:51.440Z,78.67
2023-01-25T02:13:22.701Z,78.62
2023-01-25T02:15:53.640Z,78.50
2023-01-25T02:18:24.905Z,78.50
2023-01-25T02:21:00.435Z,78.44
2023-01-25T02:23:40.626Z,78.43
2023-01-25T02:26:14.013Z,78.64
2023-01-25T02:28:46.605Z,78.62
2023-01-25T02:31:17.285Z,78.59
2023-01-25T02:33:47.244Z,78.16
2023-01-25T02:36:20.426Z,78.45
2023-01-25T02:38:53.201Z,78.50
2023-01-25T02:41:39.982Z,78.64
2023-01-25T02:44:18.486Z,78.61
2023-01-25T02:46:49.152Z,78.91
2023-01-25T02:49:19.367Z,79.24
2023-01-25T02:51:52.000Z,79.66
2023-01-25T02:54:22.895Z,79.58
2023-01-25T02:56:56.189Z,79.63
2023-01-25T02:59:28.374Z,79.69
2023-01-25T03:02:03.993Z,80.12
2023-01-25T03:04:35.057Z,80.21
2023-01-25T03:07:06.686Z,80.38
2023-01-25T03:09:36.771Z,80.19
2023-01-25T03:12:09.550Z,80.12
2023-01-25T03:14:41.264Z,80.10
2023-01-25T03:17:12.577Z,80.13
2023-01-25T03:19:42.457Z,80.31
2023-01-25T03:22:12.450Z,80.29
2023-01-25T03:24:42.144Z,79.98
2023-01-25T03:27:18.541Z,80.02
2023-01-25T03:30:12.193Z,79.94
2023-01-25T03:32:41.984Z,80.64
2023-01-25T03:35:16.105Z,80.43
2023-01-25T03:37:48.776Z,80.36
2023-01-25T03:40:18.691Z,80.13
2023-01-25T03:42:55.626Z,80.92
2023-01-25T03:45:27.850Z,80.25
2023-01-25T03:47:57.999Z,80.05
2023-01-25T03:50:27.552Z,80.32
2023-01-25T03:53:02.244Z,80.63
2023-01-25T03:55:34.446Z,81.24
2023-01-25T03:58:07.632Z,81.24
2023-01-25T04:00:37.807Z,80.85
2023-01-25T04:03:08.047Z,80.92
2023-01-25T04:05:38.139Z,80.86
2023-01-25T04:08:16.520Z,80.83
2023-01-25T04:10:48.884Z,81.04
2023-01-25T04:13:21.257Z,81.01
2023-01-25T04:15:52.218Z,81.04
2023-01-25T04:18:42.362Z,81.68
2023-01-25T04:21:12.763Z,81.78
2023-01-25T04:23:42.761Z,81.78
2023-01-25T04:26:13.012Z,81.56
2023-01-25T04:28:46.287Z,81.57
2023-01-25T04:31:16.519Z,81.49
2023-01-25T04:33:46.523Z,81.59
2023-01-25T04:36:19.323Z,81.60
2023-01-25T04:38:50.059Z,81.52
2023-01-25T04:41:20.051Z,81.76
2023-01-25T04:43:53.705Z,81.72
2023-01-25T04:46:23.477Z,81.36
2023-01-25T04:48:56.507Z,81.33
2023-01-25T04:51:26.162Z,81.30
2023-01-25T04:53:56.083Z,81.47
2023-01-25T04:56:35.619Z,81.35
2023-01-25T04:59:07.916Z,81.10
2023-01-25T05:01:38.103Z,81.63
2023-01-25T05:04:09.734Z,82.06
2023-01-25T05:06:47.206Z,82.01
2023-01-25T05:09:19.031Z,81.80
2023-01-25T05:11:49.693Z,82.15
2023-01-25T05:14:39.848Z,82.33
2023-01-25T05:17:10.712Z,81.71
2023-01-25T05:19:41.113Z,81.58
2023-01-25T05:22:17.713Z,81.83
2023-01-25T05:24:51.505Z,82.18
2023-01-25T05:27:19.899Z,82.57
2023-01-25T05:30:01.300Z,82.96
2023-01-25T05:32:41.406Z,82.92
2023-01-25T05:35:11.919Z,83.10
2023-01-25T05:37:42.324Z,83.38
2023-01-25T05:40:18.299Z,83.39
2023-01-25T05:42:48.148Z,83.33
2023-01-25T05:45:23.400Z,82.89
2023-01-25T05:47:57.621Z,83.26
2023-01-25T05:50:28.666Z,83.12
2023-01-25T05:53:11.262Z,83.05
2023-01-25T05:55:42.144Z,83.40
2023-01-25T05:58:16.376Z,83.38
2023-01-25T06:00:48.909Z,83.10
2023-01-25T06:03:32.538Z,83.21
2023-01-25T06:06:04.217Z,82.51
2023-01-25T06:08:35.690Z,83.12
2023-01-25T06:11:09.160Z,83.04
2023-01-25T06:13:41.220Z,82.61
2023-01-25T06:16:14.120Z,82.48
2023-01-25T06:18:47.204Z,82.86
2023-01-25T06:21:38.080Z,82.76
2023-01-25T06:24:10.477Z,83.00
2023-01-25T06:26:45.481Z,82.85
2023-01-25T06:29:15.107Z,83.03
2023-01-25T06:31:47.367Z,82.74
2023-01-25T06:34:17.224Z,82.93
2023-01-25T06:36:47.049Z,83.45
2023-01-25T06:39:16.992Z,83.43
2023-01-25T06:41:46.729Z,83.03
2023-01-25T06:44:20.045Z,82.88
2023-01-25T06:47:04.974Z,83.66
2023-01-25T06:49:37.152Z,83.73
2023-01-25T06:52:07.215Z,83.55
2023-01-25T06:54:39.195Z,83.20
2023-01-25T06:57:10.491Z,83.25
2023-01-25T06:59:41.478Z,83.57
2023-01-25T07:02:17.069Z,83.87
2023-01-25T07:04:51.285Z,83.56
2023-01-25T07:07:21.022Z,84.05
2023-01-25T07:09:56.539Z,84.15
2023-01-25T07:12:26.616Z,84.16
2023-01-25T07:14:56.369Z,84.53
2023-01-25T07:17:26.186Z,84.74
2023-01-25T07:20:01.131Z,84.71
2023-01-25T07:22:33.476Z,84.81
2023-01-25T07:25:07.117Z,84.31
2023-01-25T07:27:39.504Z,84.13
2023-01-25T07:30:12.906Z,84.32
2023-01-25T07:32:42.594Z,84.43
2023-01-25T07:35:17.403Z,84.52
2023-01-25T07:37:47.225Z,84.67
2023-01-25T07:40:17.456Z,84.84
2023-01-25T07:42:47.197Z,85.17
2023-01-25T07:45:18.699Z,85.00
2023-01-25T07:47:48.570Z,84.94
2023-01-25T07:50:24.928Z,84.79
2023-01-25T07:52:55.459Z,84.87
2023-01-25T07:55:25.168Z,84.36
2023-01-25T07:57:57.287Z,84.42
2023-01-25T08:00:26.954Z,84.51
2023-01-25T08:03:02.474Z,84.49
2023-01-25T08:05:34.893Z,84.27
2023-01-25T08:08:16.686Z,84.14
2023-01-25T08:10:46.263Z,84.34
2023-01-25T08:13:15.920Z,84.27
2023-01-25T08:15:45.677Z,84.34
2023-01-25T08:18:16.264Z,84.06
2023-01-25T08:20:52.771Z,84.23
2023-01-25T08:23:23.666Z,83.91
2023-01-25T08:25:53.304Z,83.80
2023-01-25T08:28:22.981Z,83.51
2023-01-25T08:30:57.552Z,83.87
2023-01-25T08:33:29.570Z,83.73
2023-01-25T08:36:01.829Z,83.44
2023-01-25T08:38:31.456Z,83.40
2023-01-25T08:41:09.529Z,83.38
2023-01-25T08:43:39.673Z,83.57
2023-01-25T08:46:09.609Z,83.89
2023-01-25T08:48:39.301Z,83.95
2023-01-25T08:51:14.432Z,84.04
2023-01-25T08:53:44.338Z,83.95
2023-01-25T08:56:22.126Z,83.76
2023-01-25T08:58:53.063Z,84.21
2023-01-25T09:01:28.680Z,83.77
2023-01-25T09:04:00.885Z,83.78
2023-01-25T09:06:33.615Z,83.74
2023-01-25T09:09:05.222Z,83.50
2023-01-25T09:11:37.218Z,83.27
2023-01-25T09:14:07.121Z,83.27
2023-01-25T09:16:36.829Z,83.54
2023-01-25T09:19:07.888Z,83.80
2023-01-25T09:21:43.734Z,83.81
2023-01-25T09:24:14.246Z,84.04
2023-01-25T09:26:55.687Z,83.90
2023-01-25T09:29:28.889Z,83.53
2023-01-25T09:32:00.389Z,83.86
2023-01-25T09:34:37.263Z,83.38
2023-01-25T09:37:09.529Z,83.01
2023-01-25T09:39:41.852Z,83.74
2023-01-25T09:42:40.584Z,83.98
2023-01-25T09:45:46.172Z,83.66
2023-01-25T09:48:21.494Z,83.54
2023-01-25T09:51:02.814Z,83.52
2023-01-25T09:53:37.834Z,83.50
2023-01-25T09:56:12.903Z,83.37
2023-01-25T09:58:47.391Z,82.88
2023-01-25T10:01:39.342Z,83.44
2023-01-25T10:04:15.439Z,83.66
2023-01-25T10:06:55.056Z,83.42
2023-01-25T10:09:35.275Z,83.57
2023-01-25T10:12:16.043Z,83.66
2023-01-25T10:14:45.736Z,83.66
2023-01-25T10:17:21.728Z,83.92
2023-01-25T10:20:10.336Z,83.56
2023-01-25T10:22:46.193Z,83.92
2023-01-25T10:25:27.204Z,83.70
2023-01-25T10:28:07.925Z,83.57
2023-01-25T10:30:41.224Z,83.59
2023-01-25T10:33:18.058Z,83.31
2023-01-25T10:35:49.810Z,83.39
2023-01-25T10:38:22.906Z,83.45
2023-01-25T10:40:57.168Z,82.85
2023-01-25T10:43:30.289Z,83.15
2023-01-25T10:46:00.269Z,82.94
2023-01-25T10:48:33.080Z,83.41
2023-01-25T10:51:03.244Z,83.66
2023-01-25T10:53:38.489Z,83.23
2023-01-25T10:56:27.300Z,83.46
2023-01-25T10:59:08.698Z,83.50
2023-01-25T11:01:50.298Z,83.02
2023-01-25T11:04:36.352Z,83.36
2023-01-25T11:07:07.183Z,83.56
2023-01-25T11:09:41.432Z,83.71
2023-01-25T11:12:22.524Z,83.58
2023-01-25T11:14:52.969Z,83.25
2023-01-25T11:17:27.997Z,83.20
2023-01-25T11:20:19.834Z,83.15
2023-01-25T11:22:54.553Z,83.51
2023-01-25T11:25:32.532Z,83.26
2023-01-25T11:28:19.469Z,83.45
2023-01-25T11:30:52.566Z,82.73
2023-01-25T11:33:23.045Z,83.11
2023-01-25T11:36:01.890Z,83.22
2023-01-25T11:38:31.978Z,82.93
2023-01-25T11:41:07.629Z,83.11
2023-01-25T11:43:50.881Z,83.23
2023-01-25T11:46:24.402Z,83.14
2023-01-25T11:49:09.040Z,83.12
2023-01-25T11:51:42.405Z,82.99
2023-01-25T11:54:26.407Z,82.76
2023-01-25T11:57:00.451Z,83.00
2023-01-25T11:59:43.007Z,82.94
2023-01-25T12:02:24.772Z,82.59
2023-01-25T12:05:06.364Z,83.06
2023-01-25T12:07:43.639Z,82.82
2023-01-25T12:10:22.291Z,82.72
2023-01-25T12:12:57.688Z,82.99
2023-01-25T12:15:35.043Z,83.17
2023-01-25T12:18:11.917Z,82.98
2023-01-25T12:20:45.498Z,83.02
2023-01-25T12:23:29.827Z,82.58
2023-01-25T12:26:20.195Z,83.05
2023-01-25T12:28:52.362Z,83.20
2023-01-25T12:31:26.607Z,82.75
2023-01-25T12:34:00.878Z,82.85
2023-01-25T12:36:34.766Z,83.07
2023-01-25T12:39:06.494Z,82.49
2023-01-25T12:41:42.073Z,83.00
2023-01-25T12:44:17.373Z,82.95
2023-01-25T12:46:54.606Z,82.83
2023-01-25T12:49:28.069Z,82.48
2023-01-25T12:51:59.523Z,82.65
2023-01-25T12:54:33.159Z,82.85
2023-01-25T12:57:22.526Z,82.72
2023-01-25T12:59:57.498Z,82.83
2023-01-25T13:02:40.354Z,82.61
2023-01-25T13:05:24.441Z,82.46
2023-01-25T13:07:58.664Z,82.81
2023-01-25T13:10:30.700Z,82.61
2023-01-25T13:13:03.765Z,82.82
2023-01-25T13:15:40.999Z,82.79
2023-01-25T13:18:25.474Z,82.89
2023-01-25T13:20:58.491Z,82.88
2023-01-25T13:23:32.978Z,82.77
2023-01-25T13:26:17.364Z,82.92
2023-01-25T13:28:48.103Z,83.22
2023-01-25T13:31:46.340Z,83.04
2023-01-25T13:34:44.846Z,83.41
2023-01-25T13:37:22.699Z,83.37
2023-01-25T13:39:53.359Z,83.07
2023-01-25T13:42:25.505Z,83.02
2023-01-25T13:44:57.223Z,82.86
2023-01-25T13:47:30.454Z,83.17
2023-01-25T13:50:04.282Z,83.04
2023-01-25T13:52:39.322Z,83.27
2023-01-25T13:55:19.321Z,83.08
2023-01-25T13:57:51.564Z,82.99
2023-01-25T14:00:21.812Z,82.89
2023-01-25T14:02:56.948Z,82.41
2023-01-25T14:05:27.893Z,82.24
2023-01-25T14:08:00.142Z,82.46
2023-01-25T14:10:30.630Z,82.31
2023-01-25T14:13:02.607Z,82.49
2023-01-25T14:15:33.601Z,82.53
2023-01-25T14:18:06.886Z,82.72
2023-01-25T14:20:36.977Z,82.94
2023-01-25T14:23:21.475Z,82.94
2023-01-25T14:25:54.220Z,82.67
2023-01-25T14:28:24.051Z,82.49
2023-01-25T14:30:55.044Z,82.16
2023-01-25T14:33:25.929Z,82.23
2023-01-25T14:36:01.730Z,82.45
2023-01-25T14:38:37.339Z,82.61
2023-01-25T14:41:17.899Z,82.37
2023-01-25T14:43:49.289Z,82.10
2023-01-25T14:46:23.318Z,82.01
2023-01-25T14:48:53.041Z,82.32
2023-01-25T14:51:28.142Z,82.69
2023-01-25T14:54:02.797Z,82.53
2023-01-25T14:56:36.880Z,82.60
2023-01-25T14:59:07.483Z,82.87
2023-01-25T15:01:40.085Z,82.50
2023-01-25T15:04:15.797Z,82.43
2023-01-25T15:06:48.120Z,82.71
2023-01-25T15:09:43.075Z,82.66
2023-01-25T15:12:34.570Z,82.56
2023-01-25T15:15:19.076Z,82.52
2023-01-25T15:17:52.779Z,82.03
2023-01-25T15:20:32.822Z,82.18
2023-01-25T15:23:09.216Z,82.50
2023-01-25T15:25:50.718Z,82.18
2023-01-25T15:28:20.634Z,82.41
2023-01-25T15:30:50.608Z,82.54
2023-01-25T15:33:24.851Z,82.67
2023-01-25T15:35:54.896Z,82.64
2023-01-25T15:38:25.177Z,82.89
2023-01-25T15:41:00.451Z,82.79
2023-01-25T15:43:30.396Z,82.80
2023-01-25T15:46:00.913Z,82.98
2023-01-25T15:48:36.082Z,83.10
2023-01-25T15:51:05.757Z,83.18
2023-01-25T15:53:35.491Z,83.24
2023-01-25T15:56:06.757Z,83.14
2023-01-25T15:58:45.163Z,83.41
2023-01-25T16:01:14.949Z,83.38
2023-01-25T16:03:48.003Z,83.60
2023-01-25T16:06:36.454Z,83.51
2023-01-25T16:09:09.175Z,83.26
2023-01-25T16:11:38.796Z,83.05
2023-01-25T16:14:15.374Z,83.08
2023-01-25T16:16:46.726Z,83.19
2023-01-25T16:19:20.688Z,83.32
2023-01-25T16:21:50.752Z,83.41
2023-01-25T16:24:20.848Z,83.22
2023-01-25T16:26:53.428Z,83.67
2023-01-25T16:29:23.466Z,83.41
2023-01-25T16:31:53.857Z,83.55
2023-01-25T16:34:26.647Z,83.90
2023-01-25T16:36:57.736Z,83.92
2023-01-25T16:39:28.442Z,84.15
2023-01-25T16:41:58.379Z,84.13
2023-01-25T16:44:28.074Z,83.56
2023-01-25T16:47:03.872Z,83.89
2023-01-25T16:49:36.200Z,83.55
2023-01-25T16:52:06.631Z,84.19
2023-01-25T16:54:36.238Z,84.27
2023-01-25T16:57:20.028Z,84.21
2023-01-25T16:59:50.434Z,84.40
2023-01-25T17:02:26.208Z,84.44
2023-01-25T17:04:58.472Z,84.12
2023-01-25T17:07:28.151Z,84.23
2023-01-25T17:09:57.771Z,83.74
2023-01-25T17:12:27.626Z,83.76
2023-01-25T17:14:59.580Z,83.83
2023-01-25T17:17:34.325Z,83.80
2023-01-25T17:20:06.817Z,84.10
2023-01-25T17:22:38.390Z,84.42
2023-01-25T17:25:08.793Z,84.53
2023-01-25T17:27:38.544Z,84.75
2023-01-25T17:30:09.164Z,84.52
2023-01-25T17:32:39.854Z,84.54
2023-01-25T17:35:12.578Z,84.26
2023-01-25T17:37:42.396Z,84.28
2023-01-25T17:40:13.129Z,83.81
2023-01-25T17:42:43.120Z,83.80
2023-01-25T17:45:13.483Z,83.92
2023-01-25T17:47:43.336Z,84.13
2023-01-25T17:50:15.925Z,84.44
2023-01-25T17:52:45.634Z,84.71
2023-01-25T17:55:15.289Z,84.63
2023-01-25T17:57:45.128Z,84.57
2023-01-25T18:00:15.348Z,84.82
2023-01-25T18:02:46.308Z,84.60
2023-01-25T18:05:19.000Z,84.62
2023-01-25T18:07:48.607Z,84.56
2023-01-25T18:10:18.998Z,84.49
2023-01-25T18:13:03.642Z,84.20
2023-01-25T18:15:34.173Z,84.01
2023-01-25T18:18:03.692Z,84.52
2023-01-25T18:20:35.961Z,84.57
2023-01-25T18:23:05.981Z,84.69
2023-01-25T18:25:36.584Z,84.79
2023-01-25T18:28:06.951Z,84.36
2023-01-25T18:30:38.047Z,84.93
2023-01-25T18:33:08.472Z,84.66
2023-01-25T18:35:41.326Z,84.44
2023-01-25T18:38:12.989Z,84.76
2023-01-25T18:40:43.863Z,84.59
2023-01-25T18:43:13.846Z,84.17
2023-01-25T18:45:43.532Z,84.74
2023-01-25T18:48:13.734Z,84.86
2023-01-25T18:50:46.119Z,84.72
2023-01-25T18:53:17.756Z,84.31
2023-01-25T18:55:47.334Z,84.69
2023-01-25T18:58:20.454Z,84.57
2023-01-25T19:00:50.087Z,84.70
2023-01-25T19:03:19.718Z,84.79
2023-01-25T19:06:05.506Z,84.48
2023-01-25T19:08:36.458Z,84.52
2023-01-25T19:11:07.248Z,84.46
2023-01-25T19:13:37.702Z,84.44
2023-01-25T19:16:08.725Z,84.89
2023-01-25T19:18:40.582Z,84.53
2023-01-25T19:21:13.428Z,84.58
2023-01-25T19:23:43.598Z,84.49
2023-01-25T19:26:14.329Z,84.41
2023-01-25T19:28:44.355Z,84.46
2023-01-25T19:31:15.158Z,84.59
2023-01-25T19:33:45.262Z,84.49
2023-01-25T19:36:19.643Z,84.43
2023-01-25T19:38:50.132Z,84.35
2023-01-25T19:41:20.330Z,83.97
2023-01-25T19:43:50.111Z,83.81
2023-01-25T19:46:20.628Z,84.01
2023-01-25T19:48:51.064Z,83.76
2023-01-25T19:51:24.510Z,83.97
2023-01-25T19:53:58.649Z,83.98
2023-01-25T19:56:28.932Z,83.59
2023-01-25T19:58:58.631Z,83.51
2023-01-25T20:01:29.602Z,83.47
2023-01-25T20:04:02.204Z,83.40
2023-01-25T20:06:34.547Z,83.53
2023-01-25T20:09:04.154Z,83.53
2023-01-25T20:11:37.537Z,83.48
2023-01-25T20:14:07.842Z,83.52
2023-01-25T20:16:37.818Z,83.60
2023-01-25T20:19:07.695Z,83.36
2023-01-25T20:21:40.189Z,83.54
2023-01-25T20:24:10.693Z,83.26
2023-01-25T20:26:43.049Z,83.16
2023-01-25T20:29:15.365Z,82.99
2023-01-25T20:31:47.557Z,82.89
2023-01-25T20:34:19.848Z,82.97
2023-01-25T20:36:53.085Z,83.02
2023-01-25T20:39:24.982Z,83.14
2023-01-25T20:42:01.340Z,83.17
2023-01-25T20:44:30.985Z,83.19
2023-01-25T20:47:00.850Z,83.16
2023-01-25T20:49:30.608Z,83.23
2023-01-25T20:52:02.865Z,83.10
2023-01-25T20:54:35.325Z,83.18
2023-01-25T20:57:04.921Z,82.84
2023-01-25T20:59:34.679Z,82.73
2023-01-25T21:02:04.480Z,82.94
2023-01-25T21:04:34.318Z,82.88
2023-01-25T21:07:07.173Z,82.85
2023-01-25T21:09:36.843Z,83.17
2023-01-25T21:12:06.501Z,82.80
2023-01-25T21:14:36.171Z,82.90
2023-01-25T21:17:05.830Z,82.72
2023-01-25T21:19:35.562Z,82.97
2023-01-25T21:22:07.864Z,82.59
2023-01-25T21:24:37.376Z,82.40
2023-01-25T21:27:08.128Z,82.59
2023-01-25T21:29:37.906Z,82.77
2023-01-25T21:32:07.639Z,83.01
2023-01-25T21:34:37.251Z,83.05
2023-01-25T21:37:09.444Z,82.80
2023-01-25T21:39:40.067Z,82.45
2023-01-25T21:42:09.821Z,82.93
2023-01-25T21:44:51.867Z,82.79
2023-01-25T21:47:30.304Z,82.61
2023-01-25T21:50:13.799Z,82.33
2023-01-25T21:52:50.087Z,82.05
2023-01-25T21:55:19.641Z,82.16
2023-01-25T21:57:49.275Z,82.03
2023-01-25T22:00:20.591Z,82.27
2023-01-25T22:02:54.053Z,82.23
2023-01-25T22:05:27.112Z,82.37
2023-01-25T22:08:00.776Z,82.63
2023-01-25T22:10:30.599Z,82.14
2023-01-25T22:13:00.227Z,81.95
2023-01-25T22:15:29.863Z,81.67
2023-01-25T22:18:01.268Z,81.77
2023-01-25T22:20:30.843Z,81.89
2023-01-25T22:23:06.102Z,82.45
2023-01-25T22:25:35.689Z,81.83
2023-01-25T22:28:07.514Z,82.02
2023-01-25T22:30:37.214Z,81.83
2023-01-25T22:33:10.252Z,81.96
2023-01-25T22:35:39.928Z,81.91
2023-01-25T22:38:15.617Z,81.80
2023-01-25T22:40:47.913Z,81.74
2023-01-25T22:43:17.809Z,81.95
2023-01-25T22:45:55.297Z,82.11
2023-01-25T22:48:30.025Z,82.19
2023-01-25T22:51:03.017Z,82.05
2023-01-25T22:53:33.245Z,81.95
2023-01-25T22:56:07.835Z,82.14
2023-01-25T22:58:38.332Z,82.14
2023-01-25T23:01:10.833Z,81.70
2023-01-25T23:03:40.471Z,81.17
2023-01-25T23:06:11.405Z,81.69
2023-01-25T23:08:41.326Z,81.89
2023-01-25T23:11:15.721Z,81.83
2023-01-25T23:14:05.783Z,81.70
2023-01-25T23:16:37.903Z,81.69
2023-01-25T23:19:05.799Z,81.57
2023-01-25T23:21:35.837Z,81.84
2023-01-25T23:24:06.132Z,81.77
2023-01-25T23:26:46.675Z,81.83
2023-01-25T23:29:16.990Z,81.57
2023-01-25T23:31:46.731Z,81.45
2023-01-25T23:34:16.476Z,81.62
2023-01-25T23:36:47.727Z,81.44
2023-01-25T23:39:17.282Z,81.76
2023-01-25T23:41:52.523Z,81.39
2023-01-25T23:44:23.260Z,81.42
2023-01-25T23:46:52.995Z,81.59
2023-01-25T23:49:22.579Z,81.42
2023-01-25T23:51:52.225Z,81.16
2023-01-25T23:54:22.728Z,81.33
2023-01-25T23:56:54.904Z,81.52
2023-01-25T23:59:24.624Z,81.20
